sensor_id;sensor_type;location;lat;lon;timestamp;P1;durP1;ratioP1;P2;durP2;ratioP2
56171;SDS011;42052;41.634;-0.946;2022-10-16T00:01:14;6.70;;;3.30;;
56171;SDS011;42052;41.634;-0.946;2022-10-16T00:03:42;5.35;;;3.45;;
56171;SDS011;42052;41.634;-0.946;2022-10-16T00:06:09;6.32;;;3.47;;
56171;SDS011;42052;41.634;-0.946;2022-10-16T00:08:36;4.97;;;3.13;;
56171;SDS011;42052;41.634;-0.946;2022-10-16T00:11:05;7.05;;;3.13;;
56171;SDS011;42052;41.634;-0.946;2022-10-16T00:13:31;5.40;;;3.20;;
56171;SDS011;42052;41.634;-0.946;2022-10-16T00:15:58;4.60;;;2.88;;
56171;SDS011;42052;41.634;-0.946;2022-10-16T00:18:25;5.20;;;3.40;;
56171;SDS011;42052;41.634;-0.946;2022-10-16T00:20:52;5.07;;;3.33;;
56171;SDS011;42052;41.634;-0.946;2022-10-16T00:23:18;5.13;;;3.40;;
56171;SDS011;42052;41.634;-0.946;2022-10-16T00:25:44;5.05;;;3.20;;
56171;SDS011;42052;41.634;-0.946;2022-10-16T00:28:10;3.97;;;3.00;;
56171;SDS011;42052;41.634;-0.946;2022-10-16T00:30:39;4.82;;;3.30;;
56171;SDS011;42052;41.634;-0.946;2022-10-16T00:33:05;3.72;;;2.67;;
56171;SDS011;42052;41.634;-0.946;2022-10-16T00:35:31;4.70;;;3.13;;
56171;SDS011;42052;41.634;-0.946;2022-10-16T00:37:57;5.30;;;2.90;;
56171;SDS011;42052;41.634;-0.946;2022-10-16T00:40:22;5.15;;;3.40;;
56171;SDS011;42052;41.634;-0.946;2022-10-16T00:42:48;4.38;;;2.95;;
56171;SDS011;42052;41.634;-0.946;2022-10-16T00:45:14;3.80;;;3.15;;
56171;SDS011;42052;41.634;-0.946;2022-10-16T00:47:43;4.20;;;2.63;;
56171;SDS011;42052;41.634;-0.946;2022-10-16T00:50:35;3.63;;;2.67;;
56171;SDS011;42052;41.634;-0.946;2022-10-16T00:53:00;4.72;;;2.90;;
56171;SDS011;42052;41.634;-0.946;2022-10-16T00:55:28;5.25;;;3.08;;
56171;SDS011;42052;41.634;-0.946;2022-10-16T00:57:55;4.43;;;2.88;;
56171;SDS011;42052;41.634;-0.946;2022-10-16T01:00:24;5.25;;;3.30;;
56171;SDS011;42052;41.634;-0.946;2022-10-16T01:03:00;5.07;;;2.90;;
56171;SDS011;42052;41.634;-0.946;2022-10-16T01:05:32;4.35;;;2.92;;
56171;SDS011;42052;41.634;-0.946;2022-10-16T01:10:51;6.05;;;2.75;;
56171;SDS011;42052;41.634;-0.946;2022-10-16T01:15:56;4.60;;;3.13;;
56171;SDS011;42052;41.634;-0.946;2022-10-16T01:21:09;4.97;;;3.05;;
56171;SDS011;42052;41.634;-0.946;2022-10-16T01:31:42;4.45;;;2.90;;
56171;SDS011;42052;41.634;-0.946;2022-10-16T01:34:14;4.40;;;2.92;;
56171;SDS011;42052;41.634;-0.946;2022-10-16T01:36:48;4.32;;;2.90;;
56171;SDS011;42052;41.634;-0.946;2022-10-16T01:39:24;3.80;;;2.80;;
56171;SDS011;42052;41.634;-0.946;2022-10-16T01:42:01;4.32;;;2.78;;
56171;SDS011;42052;41.634;-0.946;2022-10-16T01:44:33;4.00;;;2.85;;
56171;SDS011;42052;41.634;-0.946;2022-10-16T01:47:01;3.90;;;2.80;;
56171;SDS011;42052;41.634;-0.946;2022-10-16T01:49:30;4.93;;;3.03;;
56171;SDS011;42052;41.634;-0.946;2022-10-16T01:51:59;4.78;;;2.80;;
56171;SDS011;42052;41.634;-0.946;2022-10-16T01:54:28;3.83;;;2.70;;
56171;SDS011;42052;41.634;-0.946;2022-10-16T01:56:58;4.95;;;2.90;;
56171;SDS011;42052;41.634;-0.946;2022-10-16T01:59:26;4.10;;;3.03;;
56171;SDS011;42052;41.634;-0.946;2022-10-16T02:01:57;4.25;;;3.28;;
56171;SDS011;42052;41.634;-0.946;2022-10-16T02:04:28;4.65;;;3.13;;
56171;SDS011;42052;41.634;-0.946;2022-10-16T02:06:57;4.13;;;2.95;;
56171;SDS011;42052;41.634;-0.946;2022-10-16T02:09:23;3.92;;;2.70;;
56171;SDS011;42052;41.634;-0.946;2022-10-16T02:11:50;4.07;;;3.13;;
56171;SDS011;42052;41.634;-0.946;2022-10-16T02:14:19;4.80;;;3.10;;
56171;SDS011;42052;41.634;-0.946;2022-10-16T02:16:45;3.78;;;2.83;;
56171;SDS011;42052;41.634;-0.946;2022-10-16T02:19:12;5.15;;;3.00;;
56171;SDS011;42052;41.634;-0.946;2022-10-16T02:21:42;3.97;;;2.70;;
56171;SDS011;42052;41.634;-0.946;2022-10-16T02:24:13;4.00;;;3.00;;
56171;SDS011;42052;41.634;-0.946;2022-10-16T02:29:31;3.88;;;2.95;;
56171;SDS011;42052;41.634;-0.946;2022-10-16T02:32:03;3.15;;;2.67;;
56171;SDS011;42052;41.634;-0.946;2022-10-16T02:34:32;3.58;;;3.00;;
56171;SDS011;42052;41.634;-0.946;2022-10-16T02:36:59;3.70;;;2.70;;
56171;SDS011;42052;41.634;-0.946;2022-10-16T02:39:28;3.75;;;2.72;;
56171;SDS011;42052;41.634;-0.946;2022-10-16T02:41:54;8.10;;;2.88;;
56171;SDS011;42052;41.634;-0.946;2022-10-16T02:44:21;4.25;;;3.00;;
56171;SDS011;42052;41.634;-0.946;2022-10-16T02:46:47;5.38;;;2.70;;
56171;SDS011;42052;41.634;-0.946;2022-10-16T02:49:12;4.18;;;2.90;;
56171;SDS011;42052;41.634;-0.946;2022-10-16T02:51:39;3.42;;;2.70;;
56171;SDS011;42052;41.634;-0.946;2022-10-16T02:54:04;3.65;;;2.88;;
56171;SDS011;42052;41.634;-0.946;2022-10-16T02:56:30;4.07;;;2.78;;
56171;SDS011;42052;41.634;-0.946;2022-10-16T02:58:56;4.45;;;2.90;;
56171;SDS011;42052;41.634;-0.946;2022-10-16T03:01:22;4.97;;;3.00;;
56171;SDS011;42052;41.634;-0.946;2022-10-16T03:03:49;5.28;;;2.97;;
56171;SDS011;42052;41.634;-0.946;2022-10-16T03:06:15;3.88;;;2.72;;
56171;SDS011;42052;41.634;-0.946;2022-10-16T03:08:40;4.72;;;3.05;;
56171;SDS011;42052;41.634;-0.946;2022-10-16T03:11:06;4.40;;;2.88;;
56171;SDS011;42052;41.634;-0.946;2022-10-16T03:13:32;4.95;;;3.03;;
56171;SDS011;42052;41.634;-0.946;2022-10-16T03:15:58;3.60;;;2.80;;
56171;SDS011;42052;41.634;-0.946;2022-10-16T03:18:24;4.03;;;2.67;;
56171;SDS011;42052;41.634;-0.946;2022-10-16T03:20:50;3.33;;;2.95;;
56171;SDS011;42052;41.634;-0.946;2022-10-16T03:23:16;5.43;;;2.88;;
56171;SDS011;42052;41.634;-0.946;2022-10-16T03:25:42;4.47;;;3.08;;
56171;SDS011;42052;41.634;-0.946;2022-10-16T03:28:07;3.63;;;2.70;;
56171;SDS011;42052;41.634;-0.946;2022-10-16T03:30:34;3.00;;;2.70;;
56171;SDS011;42052;41.634;-0.946;2022-10-16T03:33:00;3.85;;;2.88;;
56171;SDS011;42052;41.634;-0.946;2022-10-16T03:35:26;5.03;;;2.95;;
56171;SDS011;42052;41.634;-0.946;2022-10-16T03:37:52;3.47;;;2.85;;
56171;SDS011;42052;41.634;-0.946;2022-10-16T03:40:18;3.80;;;2.85;;
56171;SDS011;42052;41.634;-0.946;2022-10-16T03:42:44;4.38;;;2.78;;
56171;SDS011;42052;41.634;-0.946;2022-10-16T03:45:10;3.00;;;2.70;;
56171;SDS011;42052;41.634;-0.946;2022-10-16T03:47:36;4.03;;;3.03;;
56171;SDS011;42052;41.634;-0.946;2022-10-16T03:50:03;4.22;;;2.97;;
56171;SDS011;42052;41.634;-0.946;2022-10-16T03:52:29;3.55;;;2.90;;
56171;SDS011;42052;41.634;-0.946;2022-10-16T03:54:57;6.00;;;3.03;;
56171;SDS011;42052;41.634;-0.946;2022-10-16T03:57:23;3.67;;;2.70;;
56171;SDS011;42052;41.634;-0.946;2022-10-16T03:59:49;5.20;;;2.83;;
56171;SDS011;42052;41.634;-0.946;2022-10-16T04:02:15;3.88;;;2.88;;
56171;SDS011;42052;41.634;-0.946;2022-10-16T04:04:41;4.53;;;2.85;;
56171;SDS011;42052;41.634;-0.946;2022-10-16T04:07:07;4.32;;;3.00;;
56171;SDS011;42052;41.634;-0.946;2022-10-16T04:09:33;3.40;;;3.03;;
56171;SDS011;42052;41.634;-0.946;2022-10-16T04:11:59;3.75;;;2.60;;
56171;SDS011;42052;41.634;-0.946;2022-10-16T04:14:25;4.28;;;2.70;;
56171;SDS011;42052;41.634;-0.946;2022-10-16T04:16:51;3.42;;;2.58;;
56171;SDS011;42052;41.634;-0.946;2022-10-16T04:19:16;4.53;;;2.67;;
56171;SDS011;42052;41.634;-0.946;2022-10-16T04:21:42;3.45;;;2.85;;
56171;SDS011;42052;41.634;-0.946;2022-10-16T04:24:08;3.55;;;2.65;;
56171;SDS011;42052;41.634;-0.946;2022-10-16T04:26:35;3.70;;;2.85;;
56171;SDS011;42052;41.634;-0.946;2022-10-16T04:29:01;3.63;;;2.85;;
56171;SDS011;42052;41.634;-0.946;2022-10-16T04:31:27;3.70;;;2.70;;
56171;SDS011;42052;41.634;-0.946;2022-10-16T04:33:53;4.30;;;2.90;;
56171;SDS011;42052;41.634;-0.946;2022-10-16T04:36:19;3.33;;;2.65;;
56171;SDS011;42052;41.634;-0.946;2022-10-16T04:38:45;4.50;;;2.80;;
56171;SDS011;42052;41.634;-0.946;2022-10-16T04:41:10;3.10;;;2.65;;
56171;SDS011;42052;41.634;-0.946;2022-10-16T04:43:36;4.82;;;2.80;;
56171;SDS011;42052;41.634;-0.946;2022-10-16T04:46:02;3.45;;;2.83;;
56171;SDS011;42052;41.634;-0.946;2022-10-16T04:48:30;4.30;;;2.80;;
56171;SDS011;42052;41.634;-0.946;2022-10-16T04:50:56;4.25;;;3.00;;
56171;SDS011;42052;41.634;-0.946;2022-10-16T04:53:22;5.25;;;2.90;;
56171;SDS011;42052;41.634;-0.946;2022-10-16T04:55:48;3.90;;;2.80;;
56171;SDS011;42052;41.634;-0.946;2022-10-16T04:58:14;3.65;;;2.83;;
56171;SDS011;42052;41.634;-0.946;2022-10-16T05:00:40;3.53;;;2.53;;
56171;SDS011;42052;41.634;-0.946;2022-10-16T05:03:06;4.25;;;2.72;;
56171;SDS011;42052;41.634;-0.946;2022-10-16T05:05:34;4.80;;;2.92;;
56171;SDS011;42052;41.634;-0.946;2022-10-16T05:08:01;4.65;;;2.90;;
56171;SDS011;42052;41.634;-0.946;2022-10-16T05:10:27;3.25;;;2.42;;
56171;SDS011;42052;41.634;-0.946;2022-10-16T05:12:53;4.88;;;2.78;;
56171;SDS011;42052;41.634;-0.946;2022-10-16T05:15:19;3.40;;;2.83;;
56171;SDS011;42052;41.634;-0.946;2022-10-16T05:17:45;3.10;;;2.58;;
56171;SDS011;42052;41.634;-0.946;2022-10-16T05:20:11;3.70;;;2.67;;
56171;SDS011;42052;41.634;-0.946;2022-10-16T05:22:37;3.25;;;2.50;;
56171;SDS011;42052;41.634;-0.946;2022-10-16T05:25:03;3.60;;;2.75;;
56171;SDS011;42052;41.634;-0.946;2022-10-16T05:27:30;4.25;;;2.60;;
56171;SDS011;42052;41.634;-0.946;2022-10-16T05:29:55;3.33;;;2.80;;
56171;SDS011;42052;41.634;-0.946;2022-10-16T05:32:21;3.05;;;2.63;;
56171;SDS011;42052;41.634;-0.946;2022-10-16T05:34:47;3.40;;;2.60;;
56171;SDS011;42052;41.634;-0.946;2022-10-16T05:37:13;3.28;;;2.58;;
56171;SDS011;42052;41.634;-0.946;2022-10-16T05:39:39;3.90;;;2.85;;
56171;SDS011;42052;41.634;-0.946;2022-10-16T05:42:05;3.00;;;2.50;;
56171;SDS011;42052;41.634;-0.946;2022-10-16T05:44:31;4.10;;;2.63;;
56171;SDS011;42052;41.634;-0.946;2022-10-16T05:46:57;3.63;;;2.67;;
56171;SDS011;42052;41.634;-0.946;2022-10-16T05:49:23;3.78;;;2.90;;
56171;SDS011;42052;41.634;-0.946;2022-10-16T05:51:49;3.40;;;2.70;;
56171;SDS011;42052;41.634;-0.946;2022-10-16T05:54:15;4.05;;;2.95;;
56171;SDS011;42052;41.634;-0.946;2022-10-16T05:56:41;3.85;;;2.80;;
56171;SDS011;42052;41.634;-0.946;2022-10-16T05:59:07;3.72;;;2.50;;
56171;SDS011;42052;41.634;-0.946;2022-10-16T06:01:34;5.80;;;2.60;;
56171;SDS011;42052;41.634;-0.946;2022-10-16T06:04:00;3.45;;;2.90;;
56171;SDS011;42052;41.634;-0.946;2022-10-16T06:06:27;4.80;;;2.88;;
56171;SDS011;42052;41.634;-0.946;2022-10-16T06:08:55;3.63;;;2.63;;
56171;SDS011;42052;41.634;-0.946;2022-10-16T06:11:22;4.50;;;2.78;;
56171;SDS011;42052;41.634;-0.946;2022-10-16T06:13:52;3.80;;;2.50;;
56171;SDS011;42052;41.634;-0.946;2022-10-16T06:16:19;4.30;;;2.80;;
56171;SDS011;42052;41.634;-0.946;2022-10-16T06:18:45;4.00;;;2.60;;
56171;SDS011;42052;41.634;-0.946;2022-10-16T06:21:16;4.38;;;2.78;;
56171;SDS011;42052;41.634;-0.946;2022-10-16T06:23:44;3.17;;;2.78;;
56171;SDS011;42052;41.634;-0.946;2022-10-16T06:26:14;4.45;;;2.53;;
56171;SDS011;42052;41.634;-0.946;2022-10-16T06:28:43;2.72;;;2.47;;
56171;SDS011;42052;41.634;-0.946;2022-10-16T06:31:09;3.47;;;2.50;;
56171;SDS011;42052;41.634;-0.946;2022-10-16T06:33:37;3.25;;;2.45;;
56171;SDS011;42052;41.634;-0.946;2022-10-16T06:36:08;3.75;;;2.85;;
56171;SDS011;42052;41.634;-0.946;2022-10-16T06:38:34;4.03;;;2.75;;
56171;SDS011;42052;41.634;-0.946;2022-10-16T06:41:01;3.50;;;2.75;;
56171;SDS011;42052;41.634;-0.946;2022-10-16T06:43:28;3.67;;;2.80;;
56171;SDS011;42052;41.634;-0.946;2022-10-16T06:45:58;3.40;;;2.80;;
56171;SDS011;42052;41.634;-0.946;2022-10-16T06:48:25;3.28;;;2.70;;
56171;SDS011;42052;41.634;-0.946;2022-10-16T06:50:58;3.45;;;2.50;;
56171;SDS011;42052;41.634;-0.946;2022-10-16T06:53:27;2.92;;;2.30;;
56171;SDS011;42052;41.634;-0.946;2022-10-16T06:55:54;2.92;;;2.50;;
56171;SDS011;42052;41.634;-0.946;2022-10-16T06:58:20;3.15;;;2.65;;
56171;SDS011;42052;41.634;-0.946;2022-10-16T07:00:46;4.55;;;2.70;;
56171;SDS011;42052;41.634;-0.946;2022-10-16T07:03:13;3.72;;;2.70;;
56171;SDS011;42052;41.634;-0.946;2022-10-16T07:05:42;5.75;;;2.60;;
56171;SDS011;42052;41.634;-0.946;2022-10-16T07:08:08;4.43;;;2.80;;
56171;SDS011;42052;41.634;-0.946;2022-10-16T07:10:35;3.72;;;2.65;;
56171;SDS011;42052;41.634;-0.946;2022-10-16T07:13:01;2.60;;;2.38;;
56171;SDS011;42052;41.634;-0.946;2022-10-16T07:15:27;4.00;;;2.53;;
56171;SDS011;42052;41.634;-0.946;2022-10-16T07:17:53;3.95;;;2.60;;
56171;SDS011;42052;41.634;-0.946;2022-10-16T07:20:19;3.55;;;2.63;;
56171;SDS011;42052;41.634;-0.946;2022-10-16T07:22:45;15.48;;;2.53;;
56171;SDS011;42052;41.634;-0.946;2022-10-16T07:25:11;9.88;;;2.63;;
56171;SDS011;42052;41.634;-0.946;2022-10-16T07:27:37;7.45;;;2.88;;
56171;SDS011;42052;41.634;-0.946;2022-10-16T07:30:04;5.05;;;2.90;;
56171;SDS011;42052;41.634;-0.946;2022-10-16T07:32:31;5.50;;;3.10;;
56171;SDS011;42052;41.634;-0.946;2022-10-16T07:34:57;5.97;;;3.10;;
56171;SDS011;42052;41.634;-0.946;2022-10-16T07:37:23;7.32;;;3.13;;
56171;SDS011;42052;41.634;-0.946;2022-10-16T07:39:49;8.73;;;3.53;;
56171;SDS011;42052;41.634;-0.946;2022-10-16T07:42:15;9.57;;;3.88;;
56171;SDS011;42052;41.634;-0.946;2022-10-16T07:44:41;6.53;;;3.50;;
56171;SDS011;42052;41.634;-0.946;2022-10-16T07:47:07;8.90;;;3.70;;
56171;SDS011;42052;41.634;-0.946;2022-10-16T07:49:33;7.07;;;3.70;;
56171;SDS011;42052;41.634;-0.946;2022-10-16T07:51:59;6.53;;;3.55;;
56171;SDS011;42052;41.634;-0.946;2022-10-16T07:54:24;7.57;;;3.90;;
56171;SDS011;42052;41.634;-0.946;2022-10-16T07:56:50;8.07;;;3.97;;
56171;SDS011;42052;41.634;-0.946;2022-10-16T07:59:16;6.82;;;3.90;;
56171;SDS011;42052;41.634;-0.946;2022-10-16T08:01:42;7.68;;;3.80;;
56171;SDS011;42052;41.634;-0.946;2022-10-16T08:04:09;5.57;;;3.53;;
56171;SDS011;42052;41.634;-0.946;2022-10-16T08:06:38;6.15;;;3.67;;
56171;SDS011;42052;41.634;-0.946;2022-10-16T08:09:05;6.47;;;3.80;;
56171;SDS011;42052;41.634;-0.946;2022-10-16T08:11:32;10.75;;;3.55;;
56171;SDS011;42052;41.634;-0.946;2022-10-16T08:13:58;11.75;;;4.03;;
56171;SDS011;42052;41.634;-0.946;2022-10-16T08:16:24;9.35;;;3.85;;
56171;SDS011;42052;41.634;-0.946;2022-10-16T08:18:50;11.23;;;4.10;;
56171;SDS011;42052;41.634;-0.946;2022-10-16T08:21:17;10.98;;;3.60;;
56171;SDS011;42052;41.634;-0.946;2022-10-16T08:23:45;9.65;;;4.00;;
56171;SDS011;42052;41.634;-0.946;2022-10-16T08:26:11;7.20;;;3.53;;
56171;SDS011;42052;41.634;-0.946;2022-10-16T08:28:37;11.82;;;3.75;;
56171;SDS011;42052;41.634;-0.946;2022-10-16T08:31:08;9.02;;;3.60;;
56171;SDS011;42052;41.634;-0.946;2022-10-16T08:33:35;7.90;;;3.70;;
56171;SDS011;42052;41.634;-0.946;2022-10-16T08:36:02;8.25;;;3.60;;
56171;SDS011;42052;41.634;-0.946;2022-10-16T08:38:28;8.48;;;3.72;;
56171;SDS011;42052;41.634;-0.946;2022-10-16T08:40:57;8.50;;;3.65;;
56171;SDS011;42052;41.634;-0.946;2022-10-16T08:49:18;6.30;;;3.72;;
56171;SDS011;42052;41.634;-0.946;2022-10-16T08:51:44;7.03;;;4.10;;
56171;SDS011;42052;41.634;-0.946;2022-10-16T08:57:12;9.13;;;4.10;;
56171;SDS011;42052;41.634;-0.946;2022-10-16T08:59:42;8.75;;;3.50;;
56171;SDS011;42052;41.634;-0.946;2022-10-16T09:02:31;8.15;;;3.60;;
56171;SDS011;42052;41.634;-0.946;2022-10-16T09:05:02;8.18;;;4.05;;
56171;SDS011;42052;41.634;-0.946;2022-10-16T09:07:53;9.10;;;3.78;;
56171;SDS011;42052;41.634;-0.946;2022-10-16T09:15:39;12.80;;;3.58;;
56171;SDS011;42052;41.634;-0.946;2022-10-16T09:23:27;10.27;;;3.65;;
56171;SDS011;42052;41.634;-0.946;2022-10-16T09:26:00;9.43;;;3.45;;
56171;SDS011;42052;41.634;-0.946;2022-10-16T09:28:26;9.05;;;3.67;;
56171;SDS011;42052;41.634;-0.946;2022-10-16T09:30:52;6.95;;;3.10;;
56171;SDS011;42052;41.634;-0.946;2022-10-16T09:33:21;10.10;;;3.53;;
56171;SDS011;42052;41.634;-0.946;2022-10-16T09:35:55;7.82;;;3.15;;
56171;SDS011;42052;41.634;-0.946;2022-10-16T09:38:27;9.90;;;3.45;;
56171;SDS011;42052;41.634;-0.946;2022-10-16T09:40:55;6.30;;;3.28;;
56171;SDS011;42052;41.634;-0.946;2022-10-16T09:43:27;6.88;;;3.53;;
56171;SDS011;42052;41.634;-0.946;2022-10-16T09:46:01;10.30;;;3.80;;
56171;SDS011;42052;41.634;-0.946;2022-10-16T09:51:02;6.28;;;3.45;;
56171;SDS011;42052;41.634;-0.946;2022-10-16T09:53:40;7.05;;;3.30;;
56171;SDS011;42052;41.634;-0.946;2022-10-16T09:56:11;8.70;;;3.60;;
56171;SDS011;42052;41.634;-0.946;2022-10-16T09:58:49;9.23;;;3.70;;
56171;SDS011;42052;41.634;-0.946;2022-10-16T10:01:17;10.75;;;3.72;;
56171;SDS011;42052;41.634;-0.946;2022-10-16T10:03:44;7.03;;;3.30;;
56171;SDS011;42052;41.634;-0.946;2022-10-16T10:08:53;7.13;;;3.30;;
56171;SDS011;42052;41.634;-0.946;2022-10-16T10:11:36;9.25;;;3.40;;
56171;SDS011;42052;41.634;-0.946;2022-10-16T10:14:25;6.88;;;3.08;;
56171;SDS011;42052;41.634;-0.946;2022-10-16T10:16:52;5.75;;;3.20;;
56171;SDS011;42052;41.634;-0.946;2022-10-16T10:19:28;5.80;;;2.95;;
56171;SDS011;42052;41.634;-0.946;2022-10-16T10:21:54;8.32;;;3.22;;
56171;SDS011;42052;41.634;-0.946;2022-10-16T10:24:19;7.93;;;3.17;;
56171;SDS011;42052;41.634;-0.946;2022-10-16T10:26:57;7.47;;;3.00;;
56171;SDS011;42052;41.634;-0.946;2022-10-16T10:45:54;9.13;;;3.17;;
56171;SDS011;42052;41.634;-0.946;2022-10-16T10:51:31;5.45;;;2.60;;
56171;SDS011;42052;41.634;-0.946;2022-10-16T11:05:47;5.30;;;2.80;;
56171;SDS011;42052;41.634;-0.946;2022-10-16T11:14:04;8.63;;;2.70;;
56171;SDS011;42052;41.634;-0.946;2022-10-16T11:16:46;8.52;;;3.00;;
56171;SDS011;42052;41.634;-0.946;2022-10-16T11:19:33;8.05;;;2.70;;
56171;SDS011;42052;41.634;-0.946;2022-10-16T11:22:22;6.35;;;2.50;;
56171;SDS011;42052;41.634;-0.946;2022-10-16T11:25:15;6.00;;;2.50;;
56171;SDS011;42052;41.634;-0.946;2022-10-16T11:30:27;10.57;;;2.65;;
56171;SDS011;42052;41.634;-0.946;2022-10-16T11:35:38;13.90;;;3.00;;
56171;SDS011;42052;41.634;-0.946;2022-10-16T11:40:52;7.07;;;2.50;;
56171;SDS011;42052;41.634;-0.946;2022-10-16T11:43:25;6.53;;;2.33;;
56171;SDS011;42052;41.634;-0.946;2022-10-16T11:46:18;8.30;;;2.83;;
56171;SDS011;42052;41.634;-0.946;2022-10-16T11:49:03;7.05;;;2.60;;
56171;SDS011;42052;41.634;-0.946;2022-10-16T11:51:48;7.07;;;2.53;;
56171;SDS011;42052;41.634;-0.946;2022-10-16T11:54:44;7.40;;;2.67;;
56171;SDS011;42052;41.634;-0.946;2022-10-16T11:57:23;9.98;;;2.63;;
56171;SDS011;42052;41.634;-0.946;2022-10-16T11:59:57;5.13;;;2.50;;
56171;SDS011;42052;41.634;-0.946;2022-10-16T12:07:50;5.75;;;2.38;;
56171;SDS011;42052;41.634;-0.946;2022-10-16T12:10:42;7.18;;;2.63;;
56171;SDS011;42052;41.634;-0.946;2022-10-16T12:16:07;4.32;;;2.22;;
56171;SDS011;42052;41.634;-0.946;2022-10-16T12:18:46;6.40;;;2.33;;
56171;SDS011;42052;41.634;-0.946;2022-10-16T12:21:14;6.35;;;2.30;;
56171;SDS011;42052;41.634;-0.946;2022-10-16T12:23:51;6.40;;;2.40;;
56171;SDS011;42052;41.634;-0.946;2022-10-16T12:26:36;7.93;;;3.10;;
56171;SDS011;42052;41.634;-0.946;2022-10-16T12:29:14;5.07;;;2.40;;
56171;SDS011;42052;41.634;-0.946;2022-10-16T12:31:47;5.90;;;2.80;;
56171;SDS011;42052;41.634;-0.946;2022-10-16T12:34:22;6.53;;;2.90;;
56171;SDS011;42052;41.634;-0.946;2022-10-16T12:36:52;6.20;;;2.65;;
56171;SDS011;42052;41.634;-0.946;2022-10-16T12:39:27;7.85;;;2.63;;
56171;SDS011;42052;41.634;-0.946;2022-10-16T12:44:51;5.68;;;2.58;;
56171;SDS011;42052;41.634;-0.946;2022-10-16T12:47:47;8.20;;;2.58;;
56171;SDS011;42052;41.634;-0.946;2022-10-16T12:53:02;5.80;;;2.45;;
56171;SDS011;42052;41.634;-0.946;2022-10-16T12:55:52;4.82;;;2.22;;
56171;SDS011;42052;41.634;-0.946;2022-10-16T12:58:26;5.78;;;2.53;;
56171;SDS011;42052;41.634;-0.946;2022-10-16T13:01:33;5.13;;;2.30;;
56171;SDS011;42052;41.634;-0.946;2022-10-16T13:07:00;7.07;;;2.70;;
56171;SDS011;42052;41.634;-0.946;2022-10-16T13:09:35;5.00;;;2.45;;
56171;SDS011;42052;41.634;-0.946;2022-10-16T13:12:42;8.25;;;2.45;;
56171;SDS011;42052;41.634;-0.946;2022-10-16T13:15:17;4.07;;;2.28;;
56171;SDS011;42052;41.634;-0.946;2022-10-16T13:20:59;5.80;;;2.40;;
56171;SDS011;42052;41.634;-0.946;2022-10-16T13:29:15;5.50;;;2.42;;
56171;SDS011;42052;41.634;-0.946;2022-10-16T13:31:42;5.25;;;2.50;;
56171;SDS011;42052;41.634;-0.946;2022-10-16T13:34:12;5.40;;;2.70;;
56171;SDS011;42052;41.634;-0.946;2022-10-16T13:36:47;4.05;;;2.28;;
56171;SDS011;42052;41.634;-0.946;2022-10-16T13:39:22;4.85;;;2.30;;
56171;SDS011;42052;41.634;-0.946;2022-10-16T13:42:24;5.50;;;2.20;;
56171;SDS011;42052;41.634;-0.946;2022-10-16T13:44:44;5.68;;;2.47;;
56171;SDS011;42052;41.634;-0.946;2022-10-16T13:47:17;3.50;;;2.08;;
56171;SDS011;42052;41.634;-0.946;2022-10-16T13:52:41;5.22;;;2.40;;
56171;SDS011;42052;41.634;-0.946;2022-10-16T13:55:14;7.10;;;2.40;;
56171;SDS011;42052;41.634;-0.946;2022-10-16T13:57:41;5.10;;;2.38;;
56171;SDS011;42052;41.634;-0.946;2022-10-16T14:02:58;5.18;;;2.38;;
56171;SDS011;42052;41.634;-0.946;2022-10-16T14:05:42;6.60;;;2.45;;
56171;SDS011;42052;41.634;-0.946;2022-10-16T14:08:14;8.80;;;2.60;;
56171;SDS011;42052;41.634;-0.946;2022-10-16T14:10:40;3.40;;;1.92;;
56171;SDS011;42052;41.634;-0.946;2022-10-16T14:13:06;7.85;;;2.47;;
56171;SDS011;42052;41.634;-0.946;2022-10-16T14:15:39;6.47;;;2.45;;
56171;SDS011;42052;41.634;-0.946;2022-10-16T14:18:05;4.70;;;2.38;;
56171;SDS011;42052;41.634;-0.946;2022-10-16T14:20:32;5.47;;;2.15;;
56171;SDS011;42052;41.634;-0.946;2022-10-16T14:23:19;5.85;;;2.60;;
56171;SDS011;42052;41.634;-0.946;2022-10-16T14:25:47;4.30;;;2.60;;
56171;SDS011;42052;41.634;-0.946;2022-10-16T14:33:20;3.95;;;2.22;;
56171;SDS011;42052;41.634;-0.946;2022-10-16T14:35:59;5.47;;;2.65;;
56171;SDS011;42052;41.634;-0.946;2022-10-16T14:38:28;5.35;;;2.40;;
56171;SDS011;42052;41.634;-0.946;2022-10-16T14:40:57;5.20;;;2.38;;
56171;SDS011;42052;41.634;-0.946;2022-10-16T14:43:27;4.75;;;2.13;;
56171;SDS011;42052;41.634;-0.946;2022-10-16T14:45:59;4.30;;;2.40;;
56171;SDS011;42052;41.634;-0.946;2022-10-16T14:48:28;4.55;;;2.20;;
56171;SDS011;42052;41.634;-0.946;2022-10-16T14:50:54;5.10;;;2.17;;
56171;SDS011;42052;41.634;-0.946;2022-10-16T14:53:20;4.85;;;2.13;;
56171;SDS011;42052;41.634;-0.946;2022-10-16T14:55:46;4.65;;;2.33;;
56171;SDS011;42052;41.634;-0.946;2022-10-16T14:58:14;3.92;;;2.05;;
56171;SDS011;42052;41.634;-0.946;2022-10-16T15:00:43;4.88;;;2.45;;
56171;SDS011;42052;41.634;-0.946;2022-10-16T15:03:09;3.97;;;2.10;;
56171;SDS011;42052;41.634;-0.946;2022-10-16T15:05:35;5.30;;;2.13;;
56171;SDS011;42052;41.634;-0.946;2022-10-16T15:08:01;6.10;;;2.38;;
56171;SDS011;42052;41.634;-0.946;2022-10-16T15:10:28;4.75;;;2.22;;
56171;SDS011;42052;41.634;-0.946;2022-10-16T15:12:55;5.28;;;2.28;;
56171;SDS011;42052;41.634;-0.946;2022-10-16T15:15:34;3.05;;;2.10;;
56171;SDS011;42052;41.634;-0.946;2022-10-16T15:18:03;2.88;;;2.20;;
56171;SDS011;42052;41.634;-0.946;2022-10-16T15:20:31;4.90;;;2.10;;
56171;SDS011;42052;41.634;-0.946;2022-10-16T15:23:06;4.83;;;2.17;;
56171;SDS011;42052;41.634;-0.946;2022-10-16T15:25:39;4.28;;;2.17;;
56171;SDS011;42052;41.634;-0.946;2022-10-16T15:28:08;2.67;;;2.00;;
56171;SDS011;42052;41.634;-0.946;2022-10-16T15:30:36;3.45;;;2.17;;
56171;SDS011;42052;41.634;-0.946;2022-10-16T15:33:04;3.85;;;1.92;;
56171;SDS011;42052;41.634;-0.946;2022-10-16T15:35:34;4.10;;;2.30;;
56171;SDS011;42052;41.634;-0.946;2022-10-16T15:38:00;4.55;;;2.05;;
56171;SDS011;42052;41.634;-0.946;2022-10-16T15:40:26;5.18;;;2.00;;
56171;SDS011;42052;41.634;-0.946;2022-10-16T15:42:52;3.72;;;2.20;;
56171;SDS011;42052;41.634;-0.946;2022-10-16T15:45:18;4.57;;;2.00;;
56171;SDS011;42052;41.634;-0.946;2022-10-16T15:47:45;5.47;;;2.20;;
56171;SDS011;42052;41.634;-0.946;2022-10-16T15:50:11;3.47;;;1.95;;
56171;SDS011;42052;41.634;-0.946;2022-10-16T15:52:38;3.08;;;1.75;;
56171;SDS011;42052;41.634;-0.946;2022-10-16T15:55:08;4.72;;;2.20;;
56171;SDS011;42052;41.634;-0.946;2022-10-16T15:57:36;4.32;;;2.10;;
56171;SDS011;42052;41.634;-0.946;2022-10-16T16:00:13;4.00;;;2.10;;
56171;SDS011;42052;41.634;-0.946;2022-10-16T16:02:41;4.85;;;2.00;;
56171;SDS011;42052;41.634;-0.946;2022-10-16T16:05:09;7.05;;;2.30;;
56171;SDS011;42052;41.634;-0.946;2022-10-16T16:07:36;3.85;;;1.80;;
56171;SDS011;42052;41.634;-0.946;2022-10-16T16:10:05;3.40;;;1.75;;
56171;SDS011;42052;41.634;-0.946;2022-10-16T16:12:33;3.42;;;1.98;;
56171;SDS011;42052;41.634;-0.946;2022-10-16T16:15:00;4.18;;;1.90;;
56171;SDS011;42052;41.634;-0.946;2022-10-16T16:17:26;6.43;;;2.10;;
56171;SDS011;42052;41.634;-0.946;2022-10-16T16:19:52;4.78;;;2.10;;
56171;SDS011;42052;41.634;-0.946;2022-10-16T16:22:18;2.83;;;1.80;;
56171;SDS011;42052;41.634;-0.946;2022-10-16T16:24:44;2.70;;;1.63;;
56171;SDS011;42052;41.634;-0.946;2022-10-16T16:27:10;2.58;;;1.70;;
56171;SDS011;42052;41.634;-0.946;2022-10-16T16:29:36;3.22;;;2.00;;
56171;SDS011;42052;41.634;-0.946;2022-10-16T16:32:02;4.03;;;1.90;;
56171;SDS011;42052;41.634;-0.946;2022-10-16T16:34:28;3.55;;;2.10;;
56171;SDS011;42052;41.634;-0.946;2022-10-16T16:36:55;4.03;;;2.03;;
56171;SDS011;42052;41.634;-0.946;2022-10-16T16:39:21;3.35;;;1.83;;
56171;SDS011;42052;41.634;-0.946;2022-10-16T16:41:48;4.03;;;1.90;;
56171;SDS011;42052;41.634;-0.946;2022-10-16T16:44:15;4.38;;;1.98;;
56171;SDS011;42052;41.634;-0.946;2022-10-16T16:46:42;4.10;;;2.00;;
56171;SDS011;42052;41.634;-0.946;2022-10-16T16:49:10;3.55;;;2.00;;
56171;SDS011;42052;41.634;-0.946;2022-10-16T16:51:37;4.32;;;1.80;;